createdAt,value
2022-08-25T00:00:13.976Z,19.33
2022-08-25T00:02:43.797Z,19.31
2022-08-25T00:05:27.178Z,19.29
2022-08-25T00:07:56.166Z,19.27
2022-08-25T00:10:25.526Z,19.26
2022-08-25T00:12:53.197Z,19.25
2022-08-25T00:15:23.854Z,19.25
2022-08-25T00:17:51.559Z,19.24
2022-08-25T00:20:19.661Z,19.24
2022-08-25T00:22:47.356Z,19.24
2022-08-25T00:25:15.057Z,19.23
2022-08-25T00:27:44.485Z,19.22
2022-08-25T00:30:15.868Z,19.21
2022-08-25T00:32:43.701Z,19.19
2022-08-25T00:35:19.498Z,19.18
2022-08-25T00:37:47.070Z,19.17
2022-08-25T00:40:14.766Z,19.16
2022-08-25T00:42:43.785Z,19.16
2022-08-25T00:45:11.657Z,19.15
2022-08-25T00:47:40.545Z,19.13
2022-08-25T00:50:10.735Z,19.12
2022-08-25T00:52:43.072Z,19.12
2022-08-25T00:55:15.737Z,19.09
2022-08-25T00:57:48.993Z,19.10
2022-08-25T01:00:21.074Z,19.08
2022-08-25T01:02:49.030Z,19.06
2022-08-25T01:05:17.509Z,19.04
2022-08-25T01:07:45.805Z,19.02
2022-08-25T01:10:14.580Z,19.00
2022-08-25T01:12:42.276Z,19.00
2022-08-25T01:15:13.988Z,18.98
2022-08-25T01:17:48.592Z,18.98
2022-08-25T01:20:18.930Z,18.96
2022-08-25T01:22:48.256Z,18.93
2022-08-25T01:25:32.212Z,18.91
2022-08-25T01:27:59.872Z,18.88
2022-08-25T01:30:28.459Z,18.87
2022-08-25T01:32:56.089Z,18.84
2022-08-25T01:35:23.860Z,18.81
2022-08-25T01:37:52.769Z,18.75
2022-08-25T01:40:20.590Z,18.72
2022-08-25T01:42:58.528Z,18.69
2022-08-25T01:45:26.819Z,18.68
2022-08-25T01:47:56.790Z,18.64
2022-08-25T01:50:24.473Z,18.62
2022-08-25T01:52:59.478Z,18.61
2022-08-25T01:55:27.737Z,18.57
2022-08-25T01:57:55.579Z,18.54
2022-08-25T02:00:24.105Z,18.51
2022-08-25T02:02:55.515Z,18.48
2022-08-25T02:05:23.859Z,18.45
2022-08-25T02:07:53.604Z,18.38
2022-08-25T02:10:22.309Z,18.34
2022-08-25T02:12:51.021Z,18.30
2022-08-25T02:15:22.322Z,18.30
2022-08-25T02:17:49.890Z,18.28
2022-08-25T02:20:17.821Z,18.25
2022-08-25T02:22:48.994Z,18.24
2022-08-25T02:25:25.565Z,18.24
2022-08-25T02:27:53.129Z,18.22
2022-08-25T02:30:21.959Z,18.19
2022-08-25T02:32:49.715Z,18.17
2022-08-25T02:35:17.993Z,18.15
2022-08-25T02:37:45.779Z,18.14
2022-08-25T02:40:13.974Z,18.14
2022-08-25T02:42:43.325Z,18.13
2022-08-25T02:45:11.441Z,18.13
2022-08-25T02:47:39.021Z,18.12
2022-08-25T02:50:07.577Z,18.09
2022-08-25T02:52:35.391Z,18.10
2022-08-25T02:55:04.605Z,18.09
2022-08-25T02:57:32.426Z,18.09
2022-08-25T03:00:01.338Z,18.07
2022-08-25T03:02:29.236Z,18.06
2022-08-25T03:04:57.138Z,18.03
2022-08-25T03:07:24.856Z,18.01
2022-08-25T03:09:52.537Z,17.99
2022-08-25T03:12:20.466Z,18.00
2022-08-25T03:14:48.009Z,18.00
2022-08-25T03:17:16.966Z,17.98
2022-08-25T03:19:44.537Z,17.99
2022-08-25T03:22:12.097Z,17.96
2022-08-25T03:24:39.642Z,17.96
2022-08-25T03:27:06.940Z,17.97
2022-08-25T03:29:35.734Z,17.96
2022-08-25T03:32:03.656Z,17.95
2022-08-25T03:34:33.005Z,17.93
2022-08-25T03:37:01.181Z,17.93
2022-08-25T03:39:28.960Z,17.90
2022-08-25T03:41:56.553Z,17.90
2022-08-25T03:44:24.223Z,17.89
2022-08-25T03:46:53.103Z,17.89
2022-08-25T03:49:23.658Z,17.89
2022-08-25T03:51:54.825Z,17.88
2022-08-25T03:54:24.905Z,17.89
2022-08-25T03:56:52.529Z,17.90
2022-08-25T03:59:20.145Z,17.89
2022-08-25T04:01:54.022Z,17.89
2022-08-25T04:04:22.653Z,17.89
2022-08-25T04:06:50.245Z,17.89
2022-08-25T04:09:19.754Z,17.89
2022-08-25T04:11:47.448Z,17.90
2022-08-25T04:14:19.996Z,17.91
2022-08-25T04:16:47.598Z,17.91
2022-08-25T04:19:15.316Z,17.92
2022-08-25T04:21:43.558Z,17.92
2022-08-25T04:24:13.337Z,17.93
2022-08-25T04:26:45.064Z,17.97
2022-08-25T04:29:15.061Z,17.98
2022-08-25T04:31:46.815Z,17.98
2022-08-25T04:34:29.876Z,18.00
2022-08-25T04:36:58.829Z,18.04
2022-08-25T04:39:26.461Z,18.07
2022-08-25T04:41:55.363Z,18.10
2022-08-25T04:44:22.940Z,18.17
2022-08-25T04:46:50.659Z,18.20
2022-08-25T04:49:18.425Z,18.22
2022-08-25T04:51:46.421Z,18.30
2022-08-25T04:54:16.984Z,18.35
2022-08-25T04:56:45.131Z,18.51
2022-08-25T04:59:15.848Z,18.81
2022-08-25T05:01:46.168Z,19.10
2022-08-25T05:04:28.087Z,19.27
2022-08-25T05:06:56.865Z,19.74
2022-08-25T05:09:26.415Z,20.10
2022-08-25T05:11:54.771Z,20.74
2022-08-25T05:14:26.453Z,21.42
2022-08-25T05:16:54.985Z,22.00
2022-08-25T05:19:23.647Z,22.42
2022-08-25T05:21:51.806Z,22.83
2022-08-25T05:24:19.533Z,22.77
2022-08-25T05:26:47.251Z,22.32
2022-08-25T05:29:15.598Z,22.00
2022-08-25T05:31:50.081Z,21.50
2022-08-25T05:34:19.399Z,21.24
2022-08-25T05:36:47.357Z,20.99
2022-08-25T05:39:14.979Z,20.78
2022-08-25T05:41:42.536Z,20.54
2022-08-25T05:44:10.215Z,20.38
2022-08-25T05:46:37.820Z,20.21
2022-08-25T05:49:06.882Z,20.08
2022-08-25T05:51:34.997Z,20.07
2022-08-25T05:54:03.496Z,19.98
2022-08-25T05:56:31.430Z,19.93
2022-08-25T05:58:58.981Z,19.78
2022-08-25T06:01:47.129Z,19.81
2022-08-25T06:04:17.626Z,19.74
2022-08-25T06:06:45.213Z,19.81
2022-08-25T06:09:12.773Z,19.83
2022-08-25T06:11:41.238Z,19.84
2022-08-25T06:14:10.070Z,19.78
2022-08-25T06:16:38.786Z,19.80
2022-08-25T06:19:07.211Z,19.80
2022-08-25T06:21:38.974Z,19.93
2022-08-25T06:24:07.189Z,20.13
2022-08-25T06:26:35.257Z,20.32
2022-08-25T06:29:02.810Z,21.12
2022-08-25T06:31:30.520Z,21.82
2022-08-25T06:33:58.630Z,22.17
2022-08-25T06:36:26.312Z,22.19
2022-08-25T06:38:55.250Z,22.13
2022-08-25T06:41:22.799Z,22.12
2022-08-25T06:43:55.479Z,22.38
2022-08-25T06:46:36.616Z,22.22
2022-08-25T06:49:05.876Z,22.23
2022-08-25T06:51:35.866Z,22.21
2022-08-25T06:54:06.268Z,22.33
2022-08-25T06:56:35.032Z,22.42
2022-08-25T06:59:03.226Z,23.43
2022-08-25T07:01:31.951Z,24.06
2022-08-25T07:04:02.779Z,24.61
2022-08-25T07:06:33.088Z,25.15
2022-08-25T07:09:00.868Z,25.51
2022-08-25T07:11:34.078Z,26.21
2022-08-25T07:14:02.898Z,26.47
2022-08-25T07:16:31.393Z,26.70
2022-08-25T07:19:00.261Z,27.02
2022-08-25T07:21:33.214Z,26.95
2022-08-25T07:24:01.592Z,27.03
2022-08-25T07:26:37.732Z,27.10
2022-08-25T07:29:09.364Z,26.98
2022-08-25T07:31:37.526Z,27.04
2022-08-25T07:34:22.925Z,26.89
2022-08-25T07:36:50.514Z,26.67
2022-08-25T07:39:18.456Z,26.33
2022-08-25T07:41:52.567Z,26.05
2022-08-25T07:44:21.211Z,25.55
2022-08-25T07:46:50.196Z,25.18
2022-08-25T07:49:18.100Z,25.05
2022-08-25T07:52:05.631Z,24.56
2022-08-25T07:54:35.096Z,24.66
2022-08-25T07:57:05.212Z,24.58
2022-08-25T07:59:39.477Z,24.73
2022-08-25T08:02:09.000Z,24.69
2022-08-25T08:04:46.216Z,24.85
2022-08-25T08:07:14.036Z,24.84
2022-08-25T08:09:41.589Z,24.84
2022-08-25T08:12:11.832Z,24.88
2022-08-25T08:14:39.650Z,25.30
2022-08-25T08:17:14.194Z,25.57
2022-08-25T08:19:45.231Z,25.37
2022-08-25T08:22:15.566Z,25.17
2022-08-25T08:24:54.169Z,24.94
2022-08-25T08:27:25.455Z,24.66
2022-08-25T08:29:53.607Z,24.65
2022-08-25T08:32:22.288Z,24.59
2022-08-25T08:34:55.194Z,24.61
2022-08-25T08:37:23.596Z,24.90
2022-08-25T08:39:52.487Z,25.04
2022-08-25T08:42:35.614Z,25.18
2022-08-25T08:45:18.243Z,25.38
2022-08-25T08:47:56.041Z,25.36
2022-08-25T08:50:33.489Z,25.38
2022-08-25T08:53:08.182Z,25.50
2022-08-25T08:55:40.474Z,25.56
2022-08-25T08:58:17.436Z,25.33
2022-08-25T09:00:52.458Z,25.36
2022-08-25T09:03:30.184Z,25.05
2022-08-25T09:06:01.728Z,25.14
2022-08-25T09:08:31.824Z,25.45
2022-08-25T09:11:10.152Z,25.36
2022-08-25T09:13:58.796Z,25.36
2022-08-25T09:16:50.233Z,25.16
2022-08-25T09:19:42.272Z,25.04
2022-08-25T09:22:35.102Z,25.33
2022-08-25T09:25:12.146Z,25.14
2022-08-25T09:27:47.762Z,25.24
2022-08-25T09:30:19.297Z,25.44
2022-08-25T09:32:52.522Z,25.84
2022-08-25T09:35:24.896Z,25.42
2022-08-25T09:37:59.912Z,25.53
2022-08-25T09:40:30.360Z,25.53
2022-08-25T09:43:02.492Z,25.46
2022-08-25T09:45:46.280Z,25.84
2022-08-25T09:48:25.805Z,25.93
2022-08-25T09:50:58.535Z,26.03
2022-08-25T09:53:26.652Z,26.44
2022-08-25T09:56:00.709Z,26.35
2022-08-25T09:58:28.352Z,26.42
2022-08-25T10:01:08.094Z,26.30
2022-08-25T10:03:36.745Z,26.90
2022-08-25T10:06:08.080Z,26.94
2022-08-25T10:08:52.998Z,26.94
2022-08-25T10:11:37.840Z,26.77
2022-08-25T10:14:15.960Z,26.64
2022-08-25T10:16:47.055Z,26.33
2022-08-25T10:19:25.140Z,26.51
2022-08-25T10:22:05.773Z,26.52
2022-08-25T10:24:35.024Z,26.49
2022-08-25T10:27:16.044Z,26.76
2022-08-25T10:30:08.364Z,26.56
2022-08-25T10:32:57.133Z,26.91
2022-08-25T10:35:29.869Z,26.61
2022-08-25T10:38:11.040Z,26.64
2022-08-25T10:40:45.506Z,26.62
2022-08-25T10:43:24.720Z,26.57
2022-08-25T10:45:59.571Z,26.43
2022-08-25T10:49:05.155Z,26.06
2022-08-25T10:51:47.726Z,26.06
2022-08-25T10:54:31.513Z,26.45
2022-08-25T10:57:08.188Z,26.40
2022-08-25T10:59:53.433Z,26.24
2022-08-25T11:03:08.095Z,25.65
2022-08-25T11:05:42.005Z,25.61
2022-08-25T11:08:15.165Z,25.71
2022-08-25T11:10:48.400Z,25.75
2022-08-25T11:13:26.155Z,25.75
2022-08-25T11:16:16.403Z,25.69
2022-08-25T11:18:51.809Z,25.75
2022-08-25T11:21:27.609Z,26.14
2022-08-25T11:24:05.709Z,25.86
2022-08-25T11:26:37.315Z,26.03
2022-08-25T11:29:11.545Z,25.98
2022-08-25T11:31:43.589Z,26.06
2022-08-25T11:34:14.435Z,25.94
2022-08-25T11:36:50.546Z,26.15
2022-08-25T11:39:34.825Z,25.81
2022-08-25T11:42:13.779Z,26.04
2022-08-25T11:44:53.609Z,26.23
2022-08-25T11:47:37.153Z,25.95
2022-08-25T11:50:08.204Z,25.94
2022-08-25T11:52:55.839Z,26.12
2022-08-25T11:55:47.357Z,25.99
2022-08-25T11:58:28.291Z,25.92
2022-08-25T12:00:59.973Z,26.10
2022-08-25T12:03:55.032Z,25.88
2022-08-25T12:06:30.361Z,25.95
2022-08-25T12:09:22.991Z,26.15
2022-08-25T12:11:54.568Z,26.18
2022-08-25T12:14:52.438Z,26.12
2022-08-25T12:17:26.314Z,26.36
2022-08-25T12:19:59.966Z,26.34
2022-08-25T12:22:56.806Z,26.17
2022-08-25T12:25:47.060Z,26.12
2022-08-25T12:28:47.945Z,26.28
2022-08-25T12:31:36.390Z,26.50
2022-08-25T12:34:18.797Z,26.47
2022-08-25T12:37:00.600Z,26.38
2022-08-25T12:39:32.588Z,26.46
2022-08-25T12:42:05.245Z,26.41
2022-08-25T12:44:47.070Z,26.34
2022-08-25T12:47:31.795Z,26.36
2022-08-25T12:50:33.528Z,26.48
2022-08-25T12:53:12.188Z,26.64
2022-08-25T12:55:47.508Z,26.51
2022-08-25T12:58:17.991Z,26.29
2022-08-25T13:01:13.853Z,26.29
2022-08-25T13:04:35.950Z,26.37
2022-08-25T13:07:15.401Z,26.20
2022-08-25T13:10:13.292Z,26.29
2022-08-25T13:12:47.705Z,26.29
2022-08-25T13:15:28.053Z,26.31
2022-08-25T13:17:55.742Z,26.24
2022-08-25T13:20:26.737Z,26.14
2022-08-25T13:22:58.701Z,26.19
2022-08-25T13:25:32.215Z,26.05
2022-08-25T13:28:02.421Z,26.03
2022-08-25T13:30:35.100Z,25.93
2022-08-25T13:33:17.229Z,25.97
2022-08-25T13:35:49.775Z,26.02
2022-08-25T13:38:20.517Z,26.00
2022-08-25T13:40:48.268Z,26.19
2022-08-25T13:43:16.287Z,25.88
2022-08-25T13:45:50.516Z,26.06
2022-08-25T13:48:34.157Z,25.88
2022-08-25T13:51:09.974Z,25.92
2022-08-25T13:53:39.634Z,25.74
2022-08-25T13:56:07.598Z,25.66
2022-08-25T13:58:39.672Z,25.73
2022-08-25T14:01:19.912Z,25.82
2022-08-25T14:04:29.443Z,25.80
2022-08-25T14:07:13.692Z,25.98
2022-08-25T14:09:47.482Z,25.99
2022-08-25T14:12:29.057Z,25.72
2022-08-25T14:15:02.051Z,25.75
2022-08-25T14:17:40.033Z,25.69
2022-08-25T14:20:25.535Z,25.66
2022-08-25T14:22:56.353Z,25.74
2022-08-25T14:25:25.852Z,25.75
2022-08-25T14:28:13.687Z,25.70
2022-08-25T14:30:46.083Z,25.82
2022-08-25T14:33:16.638Z,25.96
2022-08-25T14:35:48.006Z,25.84
2022-08-25T14:38:17.398Z,25.76
2022-08-25T14:40:45.470Z,25.86
2022-08-25T14:43:13.688Z,25.67
2022-08-25T14:45:43.831Z,25.79
2022-08-25T14:48:19.794Z,25.73
2022-08-25T14:50:47.581Z,25.68
2022-08-25T14:53:18.433Z,25.52
2022-08-25T14:55:46.094Z,25.48
2022-08-25T14:58:13.674Z,25.45
2022-08-25T15:00:44.741Z,25.58
2022-08-25T15:03:16.253Z,25.51
2022-08-25T15:05:46.007Z,25.49
2022-08-25T15:08:33.538Z,25.63
2022-08-25T15:11:01.316Z,25.62
2022-08-25T15:13:29.000Z,25.59
2022-08-25T15:15:58.085Z,25.39
2022-08-25T15:18:27.153Z,25.52
2022-08-25T15:20:54.736Z,25.62
2022-08-25T15:23:22.528Z,25.48
2022-08-25T15:25:52.645Z,25.39
2022-08-25T15:28:22.571Z,25.43
2022-08-25T15:30:50.256Z,25.31
2022-08-25T15:33:18.788Z,25.33
2022-08-25T15:35:47.709Z,25.19
2022-08-25T15:38:17.621Z,25.22
2022-08-25T15:40:45.585Z,25.22
2022-08-25T15:43:14.481Z,25.33
2022-08-25T15:45:46.357Z,25.20
2022-08-25T15:48:14.192Z,25.18
2022-08-25T15:50:42.434Z,25.13
2022-08-25T15:53:11.337Z,25.12
2022-08-25T15:55:40.276Z,25.02
2022-08-25T15:58:08.654Z,24.98
2022-08-25T16:00:37.704Z,25.05
2022-08-25T16:03:07.983Z,25.08
2022-08-25T16:05:37.318Z,25.05
2022-08-25T16:08:05.613Z,24.91
2022-08-25T16:10:40.812Z,24.90
2022-08-25T16:13:10.328Z,24.73
2022-08-25T16:15:39.129Z,24.72
2022-08-25T16:18:08.108Z,24.86
2022-08-25T16:20:36.668Z,24.90
2022-08-25T16:23:05.254Z,24.83
2022-08-25T16:25:33.307Z,24.70
2022-08-25T16:28:05.421Z,24.72
2022-08-25T16:30:33.060Z,24.68
2022-08-25T16:33:02.813Z,24.59
2022-08-25T16:35:30.950Z,24.51
2022-08-25T16:38:00.075Z,24.47
2022-08-25T16:40:31.618Z,24.26
2022-08-25T16:42:59.275Z,24.25
2022-08-25T16:45:28.296Z,24.25
2022-08-25T16:47:58.261Z,24.13
2022-08-25T16:50:26.264Z,24.09
2022-08-25T16:53:13.285Z,24.11
2022-08-25T16:55:40.881Z,24.06
2022-08-25T16:58:12.666Z,24.08
2022-08-25T17:00:44.795Z,24.00
2022-08-25T17:03:12.902Z,23.96
2022-08-25T17:05:43.256Z,23.92
2022-08-25T17:08:29.346Z,23.85
2022-08-25T17:11:06.757Z,23.77
2022-08-25T17:13:35.205Z,23.73
2022-08-25T17:16:04.695Z,23.73
2022-08-25T17:18:32.808Z,23.69
2022-08-25T17:21:01.881Z,23.61
2022-08-25T17:23:32.338Z,23.58
2022-08-25T17:25:59.943Z,23.55
2022-08-25T17:28:29.449Z,23.47
2022-08-25T17:30:57.276Z,23.43
2022-08-25T17:33:26.830Z,23.38
2022-08-25T17:35:57.870Z,23.26
2022-08-25T17:38:27.253Z,23.17
2022-08-25T17:40:58.856Z,23.10
2022-08-25T17:43:27.662Z,23.11
2022-08-25T17:45:57.108Z,23.09
2022-08-25T17:48:27.255Z,23.00
2022-08-25T17:50:55.421Z,22.92
2022-08-25T17:53:23.010Z,22.86
2022-08-25T17:56:00.213Z,22.73
2022-08-25T17:58:28.484Z,22.66
2022-08-25T18:00:56.663Z,22.57
2022-08-25T18:03:25.422Z,22.53
2022-08-25T18:05:54.576Z,22.45
2022-08-25T18:08:22.272Z,22.36
2022-08-25T18:10:59.949Z,22.28
2022-08-25T18:13:27.676Z,22.18
2022-08-25T18:15:56.057Z,22.12
2022-08-25T18:18:24.238Z,22.06
2022-08-25T18:20:52.077Z,21.98
2022-08-25T18:23:21.533Z,21.88
2022-08-25T18:25:50.528Z,21.83
2022-08-25T18:28:18.754Z,21.76
2022-08-25T18:30:47.169Z,21.71
2022-08-25T18:33:15.449Z,21.71
2022-08-25T18:35:43.468Z,21.65
2022-08-25T18:38:28.838Z,21.62
2022-08-25T18:40:59.178Z,21.55
2022-08-25T18:43:28.129Z,21.53
2022-08-25T18:46:00.237Z,21.46
2022-08-25T18:48:28.264Z,21.40
2022-08-25T18:50:56.635Z,21.34
2022-08-25T18:53:30.474Z,21.31
2022-08-25T18:56:16.238Z,21.27
2022-08-25T18:58:43.839Z,21.26
2022-08-25T19:01:14.032Z,21.21
2022-08-25T19:03:41.880Z,21.19
2022-08-25T19:06:10.026Z,21.15
2022-08-25T19:08:41.918Z,21.10
2022-08-25T19:11:10.138Z,21.09
2022-08-25T19:13:39.477Z,21.09
2022-08-25T19:16:12.122Z,21.01
2022-08-25T19:18:41.758Z,21.00
2022-08-25T19:21:09.737Z,20.95
2022-08-25T19:23:39.018Z,20.96
2022-08-25T19:26:08.860Z,20.93
2022-08-25T19:28:48.804Z,20.89
2022-08-25T19:31:18.272Z,20.84
2022-08-25T19:33:46.430Z,20.85
2022-08-25T19:36:15.387Z,20.83
2022-08-25T19:38:44.072Z,20.83
2022-08-25T19:41:14.527Z,20.81
2022-08-25T19:43:56.272Z,20.77
2022-08-25T19:46:33.006Z,20.77
2022-08-25T19:49:07.087Z,20.76
2022-08-25T19:51:35.813Z,20.74
2022-08-25T19:54:03.516Z,20.74
2022-08-25T19:56:32.482Z,20.70
2022-08-25T19:59:00.777Z,20.67
2022-08-25T20:01:29.847Z,20.67
2022-08-25T20:03:57.517Z,20.64
2022-08-25T20:06:27.637Z,20.63
2022-08-25T20:08:58.946Z,20.60
2022-08-25T20:11:29.577Z,20.57
2022-08-25T20:14:03.015Z,20.59
2022-08-25T20:16:32.965Z,20.55
2022-08-25T20:19:01.033Z,20.52
2022-08-25T20:21:28.937Z,20.51
2022-08-25T20:24:16.225Z,20.45
2022-08-25T20:26:43.815Z,20.46
2022-08-25T20:29:11.977Z,20.45
2022-08-25T20:31:41.173Z,20.42
2022-08-25T20:34:11.329Z,20.38
2022-08-25T20:36:50.173Z,20.38
2022-08-25T20:39:18.728Z,20.35
2022-08-25T20:41:48.442Z,20.35
2022-08-25T20:44:16.857Z,20.33
2022-08-25T20:46:47.002Z,20.33
2022-08-25T20:49:14.654Z,20.32
2022-08-25T20:51:42.742Z,20.31
2022-08-25T20:54:14.057Z,20.32
2022-08-25T20:56:42.414Z,20.29
2022-08-25T20:59:10.603Z,20.30
2022-08-25T21:01:40.751Z,20.23
2022-08-25T21:04:11.356Z,20.25
2022-08-25T21:06:42.628Z,20.23
2022-08-25T21:09:15.842Z,20.19
2022-08-25T21:11:45.099Z,20.19
2022-08-25T21:14:13.029Z,20.18
2022-08-25T21:16:46.283Z,20.17
2022-08-25T21:19:26.479Z,20.16
2022-08-25T21:21:59.542Z,20.16
2022-08-25T21:24:29.197Z,20.15
2022-08-25T21:26:59.553Z,20.14
2022-08-25T21:29:29.907Z,20.12
2022-08-25T21:31:58.583Z,20.11
2022-08-25T21:34:29.027Z,20.10
2022-08-25T21:36:57.877Z,20.12
2022-08-25T21:39:28.075Z,20.09
2022-08-25T21:41:58.521Z,20.09
2022-08-25T21:44:27.761Z,20.08
2022-08-25T21:46:55.346Z,20.07
2022-08-25T21:49:23.550Z,20.08
2022-08-25T21:52:04.329Z,20.07
2022-08-25T21:54:33.620Z,20.05
2022-08-25T21:57:04.840Z,20.04
2022-08-25T21:59:34.420Z,20.04
2022-08-25T22:02:04.016Z,20.02
2022-08-25T22:04:32.531Z,20.01
2022-08-25T22:07:02.536Z,20.01
2022-08-25T22:09:31.390Z,20.00
2022-08-25T22:11:59.327Z,19.97
2022-08-25T22:14:27.863Z,19.95
2022-08-25T22:16:56.090Z,19.93
2022-08-25T22:19:24.897Z,19.93
2022-08-25T22:21:53.940Z,19.92
2022-08-25T22:24:23.273Z,19.90
2022-08-25T22:26:57.016Z,19.89
2022-08-25T22:29:26.219Z,19.86
2022-08-25T22:32:00.130Z,19.87
2022-08-25T22:34:31.957Z,19.87
2022-08-25T22:37:00.373Z,19.86
2022-08-25T22:39:30.754Z,19.84
2022-08-25T22:41:58.535Z,19.82
2022-08-25T22:44:26.428Z,19.81
2022-08-25T22:46:54.550Z,19.81
2022-08-25T22:49:22.482Z,19.82
2022-08-25T22:51:50.910Z,19.81
2022-08-25T22:54:18.757Z,19.78
2022-08-25T22:56:47.691Z,19.77
2022-08-25T22:59:16.087Z,19.75
2022-08-25T23:01:45.280Z,19.75
2022-08-25T23:04:13.619Z,19.73
2022-08-25T23:06:41.393Z,19.72
2022-08-25T23:09:10.686Z,19.70
2022-08-25T23:11:38.904Z,19.71
2022-08-25T23:14:10.807Z,19.70
2022-08-25T23:16:39.265Z,19.68
2022-08-25T23:19:07.090Z,19.69
2022-08-25T23:21:53.049Z,19.69
2022-08-25T23:24:29.404Z,19.68
2022-08-25T23:26:58.045Z,19.67
2022-08-25T23:29:27.632Z,19.67
2022-08-25T23:31:55.305Z,19.66
2022-08-25T23:34:24.362Z,19.66
2022-08-25T23:36:52.432Z,19.64
2022-08-25T23:39:21.831Z,19.64
2022-08-25T23:41:49.928Z,19.62
2022-08-25T23:44:18.717Z,19.62
2022-08-25T23:46:48.615Z,19.62
2022-08-25T23:49:18.474Z,19.62
2022-08-25T23:51:48.647Z,19.61
2022-08-25T23:54:17.964Z,19.60
2022-08-25T23:56:51.668Z,19.60
2022-08-25T23:59:24.276Z,19.60
